createdAt,value
2017-07-20T00:01:13.644Z,96635.56
2017-07-20T00:03:41.262Z,96639.48
2017-07-20T00:06:08.986Z,96636.96
2017-07-20T00:08:36.612Z,96641.30
2017-07-20T00:11:04.279Z,96645.73
2017-07-20T00:13:31.908Z,96644.47
2017-07-20T00:15:59.594Z,96645.05
2017-07-20T00:18:27.198Z,96646.44
2017-07-20T00:20:54.855Z,96647.34
2017-07-20T00:23:22.453Z,96646.98
2017-07-20T00:25:50.096Z,96646.59
2017-07-20T00:28:18.043Z,96641.45
2017-07-20T00:30:45.695Z,96637.20
2017-07-20T00:33:13.323Z,96629.51
2017-07-20T00:35:40.966Z,96631.75
2017-07-20T00:38:08.584Z,96632.17
2017-07-20T00:40:36.234Z,96638.67
2017-07-20T00:43:03.861Z,96630.98
2017-07-20T00:45:31.583Z,96632.27
2017-07-20T00:47:59.228Z,96628.39
2017-07-20T00:50:26.856Z,96623.28
2017-07-20T00:52:54.505Z,96616.41
2017-07-20T00:55:22.123Z,96613.47
2017-07-20T00:57:49.721Z,96608.79
2017-07-20T01:00:17.342Z,96605.42
2017-07-20T01:02:45.060Z,96610.69
2017-07-20T01:05:12.676Z,96596.07
2017-07-20T01:07:40.320Z,96602.55
2017-07-20T01:10:07.949Z,96589.77
2017-07-20T01:12:35.758Z,96585.93
2017-07-20T01:15:03.391Z,96573.91
2017-07-20T01:17:31.063Z,96582.70
2017-07-20T01:19:58.684Z,96579.36
2017-07-20T01:22:26.306Z,96592.91
2017-07-20T01:24:53.919Z,96599.11
2017-07-20T01:27:21.666Z,96601.80
2017-07-20T01:29:49.292Z,96602.72
2017-07-20T01:32:16.926Z,96592.44
2017-07-20T01:34:44.552Z,96592.88
2017-07-20T01:37:12.209Z,96598.47
2017-07-20T01:39:40.426Z,96597.11
2017-07-20T01:42:08.060Z,96605.73
2017-07-20T01:44:35.671Z,96603.23
2017-07-20T01:47:03.295Z,96604.63
2017-07-20T01:49:30.887Z,96609.11
2017-07-20T01:51:58.527Z,96601.05
2017-07-20T01:54:26.313Z,96599.42
2017-07-20T01:56:53.957Z,96604.22
2017-07-20T01:59:21.612Z,96625.08
2017-07-20T02:01:49.380Z,96637.73
2017-07-20T02:04:16.977Z,96651.79
2017-07-20T02:06:44.661Z,96661.72
2017-07-20T02:09:12.298Z,96669.91
2017-07-20T02:11:39.939Z,96669.85
2017-07-20T02:14:07.688Z,96673.73
2017-07-20T02:16:35.386Z,96672.09
2017-07-20T02:19:03.015Z,96673.90
2017-07-20T02:21:30.672Z,96676.61
2017-07-20T02:23:58.286Z,96679.20
2017-07-20T02:26:25.931Z,96682.75
2017-07-20T02:28:53.548Z,96681.52
2017-07-20T02:31:21.445Z,96688.06
2017-07-20T02:33:49.075Z,96696.27
2017-07-20T02:36:16.686Z,96695.03
2017-07-20T02:38:44.326Z,96701.08
2017-07-20T02:41:11.935Z,96704.98
2017-07-20T02:43:39.587Z,96712.44
2017-07-20T02:46:07.286Z,96707.42
2017-07-20T02:48:34.985Z,96699.66
2017-07-20T02:51:02.578Z,96703.20
2017-07-20T02:53:30.262Z,96707.69
2017-07-20T02:55:57.871Z,96709.52
2017-07-20T02:58:25.527Z,96710.04
2017-07-20T03:00:53.175Z,96714.86
2017-07-20T03:03:20.813Z,96708.05
2017-07-20T03:05:48.835Z,96713.30
2017-07-20T03:08:16.471Z,96710.73
2017-07-20T03:10:44.313Z,96713.31
2017-07-20T03:13:12.094Z,96713.20
2017-07-20T03:15:39.752Z,96713.58
2017-07-20T03:18:08.071Z,96713.58
2017-07-20T03:20:35.690Z,96708.92
2017-07-20T03:23:03.338Z,96714.74
2017-07-20T03:25:31.155Z,96710.52
2017-07-20T03:27:58.795Z,96716.33
2017-07-20T03:30:26.404Z,96718.51
2017-07-20T03:32:54.114Z,96712.89
2017-07-20T03:35:22.066Z,96716.34
2017-07-20T03:37:49.684Z,96718.00
2017-07-20T03:40:17.292Z,96720.89
2017-07-20T03:42:44.955Z,96723.32
2017-07-20T03:45:12.578Z,96719.34
2017-07-20T03:47:40.238Z,96723.44
2017-07-20T03:50:07.833Z,96723.44
2017-07-20T03:52:35.509Z,96729.98
2017-07-20T03:55:03.137Z,96735.70
2017-07-20T03:57:30.792Z,96740.39
2017-07-20T03:59:58.539Z,96747.58
2017-07-20T04:02:26.581Z,96750.84
2017-07-20T04:04:54.375Z,96745.05
2017-07-20T04:07:22.044Z,96754.78
2017-07-20T04:09:49.703Z,96746.39
2017-07-20T04:12:17.308Z,96743.01
2017-07-20T04:14:44.939Z,96739.26
2017-07-20T04:17:12.687Z,96736.98
2017-07-20T04:19:40.460Z,96735.19
2017-07-20T04:22:08.221Z,96746.37
2017-07-20T04:24:35.868Z,96744.25
2017-07-20T04:27:03.575Z,96752.06
2017-07-20T04:29:31.220Z,96761.04
2017-07-20T04:31:58.842Z,96757.23
2017-07-20T04:34:26.502Z,96764.19
2017-07-20T04:36:54.131Z,96750.45
2017-07-20T04:39:21.791Z,96747.77
2017-07-20T04:41:50.499Z,96746.31
2017-07-20T04:44:18.259Z,96742.75
2017-07-20T04:46:45.958Z,96741.38
2017-07-20T04:49:13.593Z,96742.17
2017-07-20T04:51:41.258Z,96744.27
2017-07-20T04:54:08.907Z,96738.95
2017-07-20T04:56:36.559Z,96730.56
2017-07-20T04:59:07.584Z,96728.31
2017-07-20T05:01:35.318Z,96730.05
2017-07-20T05:04:03.071Z,96727.82
2017-07-20T05:06:30.689Z,96728.97
2017-07-20T05:08:58.421Z,96726.66
2017-07-20T05:11:26.191Z,96732.86
2017-07-20T05:13:53.857Z,96730.11
2017-07-20T05:16:21.677Z,96727.46
2017-07-20T05:18:49.315Z,96729.69
2017-07-20T05:21:16.921Z,96722.44
2017-07-20T05:23:44.562Z,96725.88
2017-07-20T05:26:12.185Z,96722.22
2017-07-20T05:28:39.843Z,96725.95
2017-07-20T05:31:07.448Z,96727.09
2017-07-20T05:33:35.502Z,96729.46
2017-07-20T05:36:03.120Z,96731.44
2017-07-20T05:38:30.734Z,96737.19
2017-07-20T05:40:58.362Z,96735.31
2017-07-20T05:43:25.995Z,96735.28
2017-07-20T05:45:53.642Z,96737.38
2017-07-20T05:48:21.275Z,96739.76
2017-07-20T05:50:49.111Z,96737.02
2017-07-20T05:53:16.740Z,96735.98
2017-07-20T05:55:44.537Z,96737.44
2017-07-20T05:58:12.162Z,96734.81
2017-07-20T06:00:39.821Z,96746.52
2017-07-20T06:03:07.432Z,96743.95
2017-07-20T06:05:35.084Z,96734.00
2017-07-20T06:08:02.736Z,96740.84
2017-07-20T06:10:30.411Z,96735.42
2017-07-20T06:12:58.077Z,96732.18
2017-07-20T06:15:25.727Z,96729.81
2017-07-20T06:17:53.350Z,96733.94
2017-07-20T06:20:21.014Z,96731.89
2017-07-20T06:22:48.658Z,96735.88
2017-07-20T06:25:16.284Z,96734.79
2017-07-20T06:27:43.968Z,96731.92
2017-07-20T06:30:23.224Z,96731.02
2017-07-20T06:32:50.875Z,96731.25
2017-07-20T06:35:18.549Z,96729.09
2017-07-20T06:37:46.178Z,96733.00
2017-07-20T06:40:13.843Z,96732.80
2017-07-20T06:42:41.455Z,96728.91
2017-07-20T06:45:09.096Z,96728.12
2017-07-20T06:47:36.744Z,96725.89
2017-07-20T06:50:04.393Z,96723.75
2017-07-20T06:52:32.027Z,96725.52
2017-07-20T06:54:59.724Z,96722.16
2017-07-20T06:57:27.431Z,96715.80
2017-07-20T06:59:55.092Z,96708.86
2017-07-20T07:02:22.734Z,96725.80
2017-07-20T07:04:50.471Z,96709.31
2017-07-20T07:07:18.118Z,96710.50
2017-07-20T07:09:46.080Z,96713.47
2017-07-20T07:12:13.724Z,96713.27
2017-07-20T07:14:41.360Z,96708.48
2017-07-20T07:17:09.061Z,96701.90
2017-07-20T07:19:36.688Z,96705.47
2017-07-20T07:22:04.392Z,96698.62
2017-07-20T07:24:32.033Z,96693.87
2017-07-20T07:26:59.691Z,96691.42
2017-07-20T07:29:27.316Z,96689.41
2017-07-20T07:31:54.983Z,96677.26
2017-07-20T07:34:22.609Z,96674.41
2017-07-20T07:36:50.237Z,96677.86
2017-07-20T07:39:17.875Z,96672.33
2017-07-20T07:41:45.523Z,96668.44
2017-07-20T07:44:13.159Z,96657.56
2017-07-20T07:46:40.894Z,96656.03
2017-07-20T07:49:08.545Z,96659.01
2017-07-20T07:51:36.207Z,96647.48
2017-07-20T07:54:03.869Z,96646.61
2017-07-20T07:56:31.514Z,96642.51
2017-07-20T07:58:59.125Z,96641.21
2017-07-20T08:01:26.759Z,96640.48
2017-07-20T08:03:54.434Z,96638.63
2017-07-20T08:06:22.259Z,96639.42
2017-07-20T08:08:49.884Z,96641.20
2017-07-20T08:11:17.553Z,96630.34
2017-07-20T08:13:45.180Z,96634.84
2017-07-20T08:16:12.958Z,96625.52
2017-07-20T08:18:40.579Z,96627.75
2017-07-20T08:21:08.206Z,96628.73
2017-07-20T08:23:35.897Z,96631.45
2017-07-20T08:26:03.549Z,96640.97
2017-07-20T08:28:31.188Z,96639.36
2017-07-20T08:30:58.842Z,96643.44
2017-07-20T08:33:26.468Z,96637.58
2017-07-20T08:35:54.154Z,96641.66
2017-07-20T08:38:21.807Z,96640.05
2017-07-20T08:40:49.618Z,96641.23
2017-07-20T08:43:17.275Z,96635.53
2017-07-20T08:45:44.894Z,96633.02
2017-07-20T08:48:12.598Z,96629.75
2017-07-20T08:50:40.203Z,96634.91
2017-07-20T08:53:07.961Z,96635.73
2017-07-20T08:55:35.603Z,96626.31
2017-07-20T08:58:03.306Z,96629.02
2017-07-20T09:00:30.944Z,96631.17
2017-07-20T09:02:58.600Z,96623.25
2017-07-20T09:05:26.319Z,96626.55
2017-07-20T09:07:53.962Z,96627.40
2017-07-20T09:10:21.878Z,96625.95
2017-07-20T09:12:49.544Z,96623.02
2017-07-20T09:15:17.162Z,96617.25
2017-07-20T09:17:44.802Z,96616.37
2017-07-20T09:20:12.442Z,96608.58
2017-07-20T09:22:40.143Z,96610.16
2017-07-20T09:25:07.785Z,96622.75
2017-07-20T09:27:35.465Z,96606.50
2017-07-20T09:30:03.291Z,96607.43
2017-07-20T09:32:31.025Z,96603.33
2017-07-20T09:34:58.666Z,96604.84
2017-07-20T09:37:26.668Z,96609.95
2017-07-20T09:39:54.315Z,96605.27
2017-07-20T09:42:21.921Z,96603.35
2017-07-20T09:44:49.519Z,96601.80
2017-07-20T09:47:17.156Z,96600.44
2017-07-20T09:49:45.688Z,96597.92
2017-07-20T09:52:13.325Z,96605.16
2017-07-20T09:54:41.014Z,96600.80
2017-07-20T09:57:08.751Z,96601.91
2017-07-20T09:59:36.401Z,96603.94
2017-07-20T10:02:04.236Z,96605.27
2017-07-20T10:04:31.859Z,96596.38
2017-07-20T10:06:59.851Z,96603.90
2017-07-20T10:09:27.597Z,96603.79
2017-07-20T10:11:55.294Z,96602.25
2017-07-20T10:14:22.942Z,96597.85
2017-07-20T10:16:50.637Z,96595.71
2017-07-20T10:19:18.498Z,96602.70
2017-07-20T10:21:46.153Z,96601.91
2017-07-20T10:24:13.817Z,96593.34
2017-07-20T10:26:41.454Z,96595.95
2017-07-20T10:29:09.148Z,96597.41
2017-07-20T10:31:36.783Z,96602.31
2017-07-20T10:34:04.474Z,96594.24
2017-07-20T10:36:32.127Z,96597.59
2017-07-20T10:38:59.789Z,96590.39
2017-07-20T10:41:27.401Z,96596.97
2017-07-20T10:43:55.063Z,96597.92
2017-07-20T10:46:22.708Z,96596.75
2017-07-20T10:48:50.484Z,96598.94
2017-07-20T10:51:18.163Z,96598.11
2017-07-20T10:53:45.811Z,96593.83
2017-07-20T10:56:13.465Z,96595.84
2017-07-20T10:58:41.118Z,96596.63
2017-07-20T11:01:08.826Z,96589.36
2017-07-20T11:03:36.474Z,96583.83
2017-07-20T11:06:04.105Z,96590.79
2017-07-20T11:08:31.754Z,96590.98
2017-07-20T11:10:59.415Z,96594.63
2017-07-20T11:13:27.079Z,96591.28
2017-07-20T11:15:54.807Z,96591.83
2017-07-20T11:18:22.463Z,96593.98
2017-07-20T11:20:50.154Z,96589.89
2017-07-20T11:23:17.791Z,96584.44
2017-07-20T11:25:45.479Z,96577.98
2017-07-20T11:28:13.272Z,96584.17
2017-07-20T11:30:40.897Z,96581.64
2017-07-20T11:33:08.567Z,96581.44
2017-07-20T11:35:36.280Z,96582.55
2017-07-20T11:38:03.958Z,96588.77
2017-07-20T11:40:31.589Z,96585.05
2017-07-20T11:42:59.217Z,96587.97
2017-07-20T11:45:26.906Z,96575.26
2017-07-20T11:47:54.541Z,96577.69
2017-07-20T11:50:22.260Z,96574.02
2017-07-20T11:52:49.968Z,96575.73
2017-07-20T11:55:17.619Z,96576.30
2017-07-20T11:57:45.323Z,96567.62
2017-07-20T12:00:14.054Z,96572.60
2017-07-20T12:02:41.679Z,96566.70
2017-07-20T12:05:09.393Z,96575.73
2017-07-20T12:07:37.029Z,96573.30
2017-07-20T12:10:04.831Z,96571.91
2017-07-20T12:12:32.482Z,96569.03
2017-07-20T12:15:00.365Z,96569.50
2017-07-20T12:17:28.128Z,96571.04
2017-07-20T12:19:55.825Z,96566.78
2017-07-20T12:22:23.453Z,96568.98
2017-07-20T12:24:51.092Z,96567.88
2017-07-20T12:27:18.733Z,96567.68
2017-07-20T12:29:46.383Z,96569.75
2017-07-20T12:32:14.071Z,96556.75
2017-07-20T12:34:41.782Z,96563.01
2017-07-20T12:37:09.551Z,96559.96
2017-07-20T12:39:37.275Z,96557.24
2017-07-20T12:42:04.910Z,96562.45
2017-07-20T12:44:32.609Z,96552.58
2017-07-20T12:47:00.241Z,96557.82
2017-07-20T12:49:27.905Z,96554.77
2017-07-20T12:51:55.544Z,96558.63
2017-07-20T12:54:23.258Z,96563.66
2017-07-20T12:56:50.872Z,96567.27
2017-07-20T12:59:18.593Z,96561.98
2017-07-20T13:01:46.257Z,96567.22
2017-07-20T13:04:14.032Z,96564.81
2017-07-20T13:06:41.715Z,96569.73
2017-07-20T13:09:09.336Z,96576.36
2017-07-20T13:11:37.040Z,96566.94
2017-07-20T13:14:04.699Z,96567.52
2017-07-20T13:16:32.409Z,96567.99
2017-07-20T13:19:00.044Z,96572.19
2017-07-20T13:21:27.792Z,96576.92
2017-07-20T13:23:55.451Z,96576.07
2017-07-20T13:26:23.131Z,96582.56
2017-07-20T13:28:50.882Z,96598.80
2017-07-20T13:31:18.535Z,96610.95
2017-07-20T13:33:46.222Z,96618.15
2017-07-20T13:36:13.960Z,96620.82
2017-07-20T13:38:41.725Z,96618.44
2017-07-20T13:41:09.394Z,96626.19
2017-07-20T13:43:37.047Z,96645.08
2017-07-20T13:46:04.879Z,96654.73
2017-07-20T13:48:32.511Z,96653.41
2017-07-20T13:51:00.164Z,96670.10
2017-07-20T13:53:27.817Z,96678.63
2017-07-20T13:55:55.460Z,96686.32
2017-07-20T13:58:23.087Z,96691.33
2017-07-20T14:00:50.771Z,96698.39
2017-07-20T14:03:18.406Z,96710.63
2017-07-20T14:05:46.076Z,96714.20
2017-07-20T14:08:13.700Z,96716.70
2017-07-20T14:10:41.355Z,96727.23
2017-07-20T14:13:08.976Z,96733.78
2017-07-20T14:15:36.765Z,96741.62
2017-07-20T14:18:04.408Z,96744.64
2017-07-20T14:20:32.160Z,96751.59
2017-07-20T14:22:59.917Z,96751.99
2017-07-20T14:25:27.577Z,96753.33
2017-07-20T14:27:55.219Z,96752.33
2017-07-20T14:30:22.972Z,96759.85
2017-07-20T14:32:50.891Z,96763.31
2017-07-20T14:35:18.804Z,96772.89
2017-07-20T14:37:46.449Z,96776.37
2017-07-20T14:40:14.147Z,96784.87
2017-07-20T14:42:41.964Z,96786.16
2017-07-20T14:45:09.648Z,96794.30
2017-07-20T14:47:37.318Z,96781.58
2017-07-20T14:50:04.958Z,96764.01
2017-07-20T14:52:32.646Z,96784.19
2017-07-20T14:55:00.283Z,96783.47
2017-07-20T14:57:27.934Z,96790.88
2017-07-20T14:59:55.565Z,96797.78
2017-07-20T15:02:23.217Z,96800.01
2017-07-20T15:04:50.838Z,96795.47
2017-07-20T15:07:18.503Z,96800.00
2017-07-20T15:09:46.142Z,96796.62
2017-07-20T15:12:13.950Z,96790.28
2017-07-20T15:14:41.580Z,96786.42
2017-07-20T15:17:09.275Z,96778.66
2017-07-20T15:19:36.912Z,96775.59
2017-07-20T15:22:04.587Z,96785.06
2017-07-20T15:24:32.340Z,96788.52
2017-07-20T15:27:00.003Z,96781.12
2017-07-20T15:29:27.639Z,96775.64
2017-07-20T15:31:55.418Z,96776.57
2017-07-20T15:34:23.097Z,96777.92
2017-07-20T15:36:50.775Z,96781.23
2017-07-20T15:39:18.459Z,96779.55
2017-07-20T15:41:46.888Z,96792.27
2017-07-20T15:44:14.625Z,96793.88
2017-07-20T15:46:42.268Z,96811.61
2017-07-20T15:49:09.902Z,96812.16
2017-07-20T15:51:37.745Z,96821.35
2017-07-20T15:54:05.546Z,96829.70
2017-07-20T15:56:33.224Z,96828.03
2017-07-20T15:59:00.867Z,96835.41
2017-07-20T16:01:28.531Z,96833.62
2017-07-20T16:03:56.330Z,96832.73
2017-07-20T16:06:23.984Z,96835.77
2017-07-20T16:08:51.635Z,96826.73
2017-07-20T16:11:19.257Z,96828.45
2017-07-20T16:13:47.020Z,96827.22
2017-07-20T16:16:14.702Z,96824.27
2017-07-20T16:18:42.458Z,96818.30
2017-07-20T16:21:10.178Z,96819.12
2017-07-20T16:23:37.959Z,96824.71
2017-07-20T16:26:05.575Z,96829.83
2017-07-20T16:28:33.215Z,96832.31
2017-07-20T16:31:00.874Z,96832.06
2017-07-20T16:33:28.542Z,96829.70
2017-07-20T16:35:56.163Z,96834.52
2017-07-20T16:38:23.810Z,96832.13
2017-07-20T16:40:51.438Z,96833.73
2017-07-20T16:43:19.523Z,96827.28
2017-07-20T16:45:47.156Z,96824.27
2017-07-20T16:48:15.406Z,96819.09
2017-07-20T16:50:43.062Z,96821.63
2017-07-20T16:53:10.842Z,96829.05
2017-07-20T16:55:38.471Z,96828.17
2017-07-20T16:58:06.130Z,96830.41
2017-07-20T17:00:33.889Z,96837.21
2017-07-20T17:03:01.531Z,96842.69
2017-07-20T17:05:29.190Z,96844.40
2017-07-20T17:07:58.491Z,96845.58
2017-07-20T17:10:26.133Z,96845.02
2017-07-20T17:12:53.920Z,96839.88
2017-07-20T17:15:21.613Z,96842.73
2017-07-20T17:17:49.363Z,96838.37
2017-07-20T17:20:17.033Z,96837.08
2017-07-20T17:22:44.659Z,96834.82
2017-07-20T17:25:12.585Z,96834.89
2017-07-20T17:27:40.206Z,96840.05
2017-07-20T17:30:07.826Z,96826.33
2017-07-20T17:32:35.481Z,96826.78
2017-07-20T17:35:03.111Z,96824.68
2017-07-20T17:37:30.915Z,96830.75
2017-07-20T17:39:58.612Z,96826.02
2017-07-20T17:42:26.300Z,96833.34
2017-07-20T17:44:54.383Z,96828.67
2017-07-20T17:47:22.311Z,96826.53
2017-07-20T17:49:49.915Z,96823.46
2017-07-20T17:52:17.544Z,96825.11
2017-07-20T17:54:45.251Z,96825.03
2017-07-20T17:57:13.042Z,96823.80
2017-07-20T17:59:40.727Z,96828.73
2017-07-20T18:02:08.346Z,96831.81
2017-07-20T18:04:36.020Z,96824.48
2017-07-20T18:07:05.172Z,96825.65
2017-07-20T18:09:32.862Z,96823.56
2017-07-20T18:12:00.684Z,96827.89
2017-07-20T18:14:28.377Z,96814.48
2017-07-20T18:16:56.132Z,96813.38
2017-07-20T18:19:23.982Z,96811.16
2017-07-20T18:21:51.741Z,96807.23
2017-07-20T18:24:19.465Z,96815.91
2017-07-20T18:26:47.179Z,96825.31
2017-07-20T18:29:15.131Z,96828.69
2017-07-20T18:31:43.052Z,96835.95
2017-07-20T18:34:10.738Z,96836.31
2017-07-20T18:36:38.400Z,96839.32
2017-07-20T18:39:06.382Z,96838.64
2017-07-20T18:41:34.455Z,96845.27
2017-07-20T18:44:02.163Z,96843.37
2017-07-20T18:46:30.276Z,96842.45
2017-07-20T18:48:57.949Z,96839.06
2017-07-20T18:51:25.874Z,96846.06
2017-07-20T18:53:53.511Z,96853.42
2017-07-20T18:56:21.543Z,96846.62
2017-07-20T18:58:49.220Z,96848.45
2017-07-20T19:01:16.845Z,96850.70
2017-07-20T19:03:44.504Z,96858.09
2017-07-20T19:06:12.274Z,96867.61
2017-07-20T19:08:40.056Z,96871.54
2017-07-20T19:11:12.249Z,96865.98
2017-07-20T19:13:39.938Z,96869.52
2017-07-20T19:16:07.674Z,96870.86
2017-07-20T19:18:35.323Z,96878.72
2017-07-20T19:21:02.994Z,96880.87
2017-07-20T19:23:30.649Z,96884.32
2017-07-20T19:25:58.307Z,96889.14
2017-07-20T19:28:26.218Z,96897.05
2017-07-20T19:30:53.858Z,96894.70
2017-07-20T19:33:21.672Z,96893.84
2017-07-20T19:35:49.618Z,96901.57
2017-07-20T19:38:17.331Z,96903.73
2017-07-20T19:40:46.912Z,96905.94
2017-07-20T19:43:14.608Z,96906.95
2017-07-20T19:45:42.225Z,96902.66
2017-07-20T19:48:09.924Z,96906.95
2017-07-20T19:50:37.641Z,96905.72
2017-07-20T19:53:05.284Z,96903.24
2017-07-20T19:55:32.937Z,96907.97
2017-07-20T19:58:00.866Z,96902.83
2017-07-20T20:00:28.499Z,96900.25
2017-07-20T20:02:56.123Z,96896.75
2017-07-20T20:05:23.813Z,96905.34
2017-07-20T20:07:51.455Z,96901.58
2017-07-20T20:10:19.134Z,96894.00
2017-07-20T20:12:46.773Z,96893.20
2017-07-20T20:15:14.472Z,96890.25
2017-07-20T20:17:42.158Z,96895.47
2017-07-20T20:20:09.869Z,96895.09
2017-07-20T20:22:37.506Z,96894.72
2017-07-20T20:25:05.487Z,96891.82
2017-07-20T20:27:33.092Z,96892.35
2017-07-20T20:30:00.847Z,96894.55
2017-07-20T20:32:28.609Z,96890.84
2017-07-20T20:34:56.223Z,96896.41
2017-07-20T20:37:23.879Z,96896.04
2017-07-20T20:39:51.526Z,96889.66
2017-07-20T20:42:19.460Z,96895.77
2017-07-20T20:44:47.073Z,96897.07
2017-07-20T20:47:14.779Z,96890.34
2017-07-20T20:49:42.445Z,96893.38
2017-07-20T20:52:10.069Z,96890.89
2017-07-20T20:54:37.711Z,96886.13
2017-07-20T20:57:05.320Z,96891.81
2017-07-20T20:59:33.252Z,96883.81
2017-07-20T21:02:01.007Z,96884.72
2017-07-20T21:04:28.702Z,96884.44
2017-07-20T21:06:56.402Z,96885.69
2017-07-20T21:09:24.066Z,96885.67
2017-07-20T21:11:51.708Z,96888.30
2017-07-20T21:14:19.358Z,96887.59
2017-07-20T21:16:47.045Z,96894.56
2017-07-20T21:19:14.679Z,96892.09
2017-07-20T21:21:42.446Z,96897.33
2017-07-20T21:24:10.086Z,96899.00
2017-07-20T21:26:37.716Z,96907.20
2017-07-20T21:29:05.454Z,96908.91
2017-07-20T21:31:33.137Z,96911.49
2017-07-20T21:34:00.800Z,96908.20
2017-07-20T21:36:28.420Z,96909.06
2017-07-20T21:38:56.243Z,96915.88
2017-07-20T21:41:23.877Z,96910.88
2017-07-20T21:43:51.535Z,96907.06
2017-07-20T21:46:19.425Z,96904.95
2017-07-20T21:48:47.100Z,96908.88
2017-07-20T21:51:14.719Z,96905.06
2017-07-20T21:53:42.635Z,96892.71
2017-07-20T21:56:11.267Z,96890.58
2017-07-20T21:58:38.905Z,96900.67
2017-07-20T22:01:06.552Z,96896.09
2017-07-20T22:03:34.171Z,96889.66
2017-07-20T22:06:01.832Z,96893.52
2017-07-20T22:08:29.509Z,96893.09
2017-07-20T22:10:57.420Z,96902.09
2017-07-20T22:13:25.031Z,96901.71
2017-07-20T22:15:52.693Z,96898.47
2017-07-20T22:18:20.372Z,96909.75
2017-07-20T22:20:47.994Z,96903.94
2017-07-20T22:23:15.677Z,96897.64
2017-07-20T22:25:43.314Z,96898.12
2017-07-20T22:28:11.275Z,96894.27
2017-07-20T22:30:38.930Z,96906.09
2017-07-20T22:33:06.569Z,96907.33
2017-07-20T22:35:34.337Z,96899.62
2017-07-20T22:38:01.980Z,96907.77
2017-07-20T22:40:29.712Z,96910.33
2017-07-20T22:42:57.356Z,96915.95
2017-07-20T22:45:25.138Z,96912.09
2017-07-20T22:47:52.909Z,96915.56
2017-07-20T22:50:20.560Z,96923.70
2017-07-20T22:52:48.241Z,96925.42
2017-07-20T22:55:15.874Z,96925.42
2017-07-20T22:57:43.557Z,96922.08
2017-07-20T23:00:11.224Z,96921.91
2017-07-20T23:02:38.914Z,96917.38
2017-07-20T23:05:06.548Z,96917.45
2017-07-20T23:07:34.156Z,96917.50
2017-07-20T23:10:01.794Z,96919.20
2017-07-20T23:12:29.426Z,96918.78
2017-07-20T23:14:57.192Z,96918.87
2017-07-20T23:17:24.801Z,96920.70
2017-07-20T23:19:52.446Z,96920.45
2017-07-20T23:22:20.074Z,96920.13
2017-07-20T23:24:47.694Z,96921.03
2017-07-20T23:27:15.456Z,96921.50
2017-07-20T23:29:43.121Z,96930.54
2017-07-20T23:32:10.762Z,96931.05
2017-07-20T23:34:38.439Z,96921.23
2017-07-20T23:37:06.074Z,96915.23
2017-07-20T23:39:33.708Z,96920.30
2017-07-20T23:42:01.344Z,96921.66
2017-07-20T23:44:28.994Z,96927.30
2017-07-20T23:46:56.610Z,96924.66
2017-07-20T23:49:24.355Z,96927.19
2017-07-20T23:51:51.972Z,96928.47
2017-07-20T23:54:19.616Z,96926.77
2017-07-20T23:56:47.243Z,96931.47
2017-07-20T23:59:14.994Z,96934.52
